| Date | Time | Temp. (oF) | Dew Point (oF) | Rel. Hum. (%) | Press. (in.) | Wind Dir. | Wind Speed (mph) | Hourly Rainfall (in.) |
|
|---|---|---|---|---|---|---|---|---|---|
| 1 | 07/18 | 00:00 | 66 | 65 | 98 | 30.05 | E | 1 | 0.00 |
| 2 | 07/17 | 23:00 | 67 | 65 | 96 | 30.05 | ESE | 2 | 0.00 |
| 3 | 07/17 | 22:00 | 68 | 66 | 96 | 30.06 | NE | 0 | 0.00 |
| 4 | 07/17 | 21:00 | 69 | 66 | 91 | 30.04 | NNE | 0 | 0.00 |
| 5 | 07/17 | 20:00 | 71 | 66 | 87 | 30.02 | SE | 1 | 0.00 |
| 6 | 07/17 | 19:00 | 72 | 67 | 86 | 30.03 | SSE | 3 | 0.00 |
| 7 | 07/17 | 18:00 | 71 | 66 | 87 | 30.01 | ESE | 5 | 0.00 |
| 8 | 07/17 | 17:00 | 68 | 65 | 91 | 30.01 | N | 4 | 0.01 |
| 9 | 07/17 | 16:00 | 72 | 64 | 77 | 29.99 | SE | 7 | 0.09 |
| 10 | 07/17 | 15:00 | 82 | 69 | 66 | 29.98 | SSW | 4 | 0.00 |
| 11 | 07/17 | 14:00 | 87 | 70 | 58 | 29.98 | ESE | 4 | 0.00 |
| 12 | 07/17 | 13:00 | 86 | 71 | 62 | 29.99 | WSW | 3 | 0.00 |
| 13 | 07/17 | 12:00 | 85 | 74 | 71 | 30.01 | ENE | 2 | 0.00 |
| 14 | 07/17 | 11:00 | 82 | 73 | 75 | 30.02 | SSE | 7 | 0.00 |
| 15 | 07/17 | 10:00 | 80 | 72 | 77 | 30.02 | ESE | 8 | 0.00 |
| 16 | 07/17 | 09:00 | 75 | 71 | 89 | 30.02 | SSE | 2 | 0.00 |
| 17 | 07/17 | 08:00 | 70 | 68 | 95 | 30.02 | ESE | 2 | 0.00 |
| 18 | 07/17 | 07:00 | 67 | 67 | 100 | 30.01 | ENE | 1 | 0.00 |
| 19 | 07/17 | 06:00 | 65 | 64 | 99 | 30.00 | SSE | 0 | 0.00 |
| 20 | 07/17 | 05:00 | 66 | 65 | 98 | 29.99 | SSE | 0 | 0.00 |
| 21 | 07/17 | 04:00 | 66 | 65 | 97 | 29.98 | SSE | 0 | 0.00 |
| 22 | 07/17 | 03:00 | 67 | 65 | 95 | 29.98 | SSE | 0 | 0.00 |
| 23 | 07/17 | 02:00 | 68 | 65 | 92 | 30.00 | SSE | 0 | 0.00 |
| 24 | 07/17 | 01:00 | 68 | 65 | 91 | 30.00 | SSE | 0 | 0.00 |